Huvudsida
METAR-TAF:

METAR-TAF

Flygplatser :

Berlin-Tegels flygplats

Berlin, Tyskland

latitud: 52-34N, longitud: 013-19E, höjd: 37 m

Aktuellt väderrapport

Denna rapport gjordes för 30 minuter sedan, klockan 20:20 UTC
Vind 10 kt från ost, varierande mellan nordost och sydost
Temperatur 6°C
Fuktighet 65%
Tryck 1036 hPa
Sikt 10 km eller mer
Brutna moln på en höjd av 3000 ft

METAR: EDDT 162020Z 10010KT 050V130 9999 BKN030 06/M00 Q1036 NOSIG

Tid: 21:50 (20:50 UTC)

Väderprognos

Denna rapport gjordes för 3 timmar och 50 minuter sedan, klockan 17:00 UTC
Prognos gäller från 16 kl. 18 UTC till 17 kl. 18 UTC
Vind 7 kt från ost
Sikt 10 km eller mer
Brutna moln på en höjd av 2500 ft

TAF: EDDT 161700Z 1618/1718 09007KT 9999 BKN025

Aktuella väderrapporter och prognoser från 4000 flygplatser (METAR- och TAF-rapporter).

De tillgängliga stationerna syns som gula och röda prickar på kartan.

För musen över prickarna för att se namnen på stationerna.

Klicka sedan för att få väderrapporter och prognoser.

För att ändra kartan: Klicka på de gröna knapparna med ett svart kors på för att zooma in; den gröna knappen med ett streck på för att zooma ut; eller på de gröna pilarna för angränsande kartor.


METAR-TAF: